createdAt,value
2018-02-21T00:00:27.251Z,0.00
2018-02-21T00:01:27.237Z,0.00
2018-02-21T00:02:27.225Z,0.00
2018-02-21T00:03:27.214Z,0.00
2018-02-21T00:04:27.197Z,0.00
2018-02-21T00:05:27.184Z,0.00
2018-02-21T00:06:27.173Z,0.00
2018-02-21T00:07:27.161Z,0.00
2018-02-21T00:08:27.148Z,0.00
2018-02-21T00:09:27.136Z,0.00
2018-02-21T00:10:27.124Z,0.00
2018-02-21T00:11:27.112Z,0.00
2018-02-21T00:12:27.101Z,0.00
2018-02-21T00:13:27.089Z,0.00
2018-02-21T00:14:27.077Z,0.00
2018-02-21T00:15:27.065Z,0.00
2018-02-21T00:16:27.053Z,0.00
2018-02-21T00:17:27.041Z,0.00
2018-02-21T00:18:27.030Z,0.00
2018-02-21T00:19:27.015Z,0.00
2018-02-21T00:20:27.002Z,0.00
2018-02-21T00:21:26.990Z,0.00
2018-02-21T00:22:26.975Z,0.00
2018-02-21T00:23:26.963Z,0.00
2018-02-21T00:24:26.949Z,0.00
2018-02-21T00:25:26.936Z,0.00
2018-02-21T00:26:26.927Z,0.00
2018-02-21T00:27:26.914Z,0.00
2018-02-21T00:28:26.903Z,0.00
2018-02-21T00:29:26.890Z,0.00
2018-02-21T00:30:26.879Z,0.00
2018-02-21T00:31:26.866Z,0.00
2018-02-21T00:32:26.852Z,0.00
2018-02-21T00:33:26.840Z,0.00
2018-02-21T00:34:26.828Z,0.00
2018-02-21T00:35:26.817Z,0.00
2018-02-21T00:36:26.801Z,0.00
2018-02-21T00:37:26.788Z,0.00
2018-02-21T00:38:26.774Z,0.00
2018-02-21T00:39:26.763Z,0.00
2018-02-21T00:40:26.749Z,0.00
2018-02-21T00:41:26.738Z,0.00
2018-02-21T00:42:26.726Z,0.00
2018-02-21T00:43:26.712Z,0.00
2018-02-21T00:44:26.701Z,0.00
2018-02-21T00:45:26.689Z,0.00
2018-02-21T00:46:26.680Z,0.00
2018-02-21T00:47:26.665Z,0.00
2018-02-21T00:48:26.653Z,0.00
2018-02-21T00:49:26.636Z,0.00
2018-02-21T00:50:26.624Z,0.00
2018-02-21T00:51:26.611Z,0.00
2018-02-21T00:52:26.600Z,0.00
2018-02-21T00:53:26.587Z,0.00
2018-02-21T00:54:26.576Z,0.00
2018-02-21T00:55:26.563Z,0.00
2018-02-21T00:56:26.550Z,0.00
2018-02-21T00:57:26.537Z,0.00
2018-02-21T00:58:26.525Z,0.00
2018-02-21T00:59:26.512Z,0.00
2018-02-21T01:00:26.496Z,0.00
2018-02-21T01:01:26.483Z,0.00
2018-02-21T01:02:26.471Z,0.00
2018-02-21T01:03:26.458Z,0.00
2018-02-21T01:04:26.446Z,0.00
2018-02-21T01:05:26.432Z,0.00
2018-02-21T01:06:26.420Z,0.00
2018-02-21T01:07:26.407Z,0.00
2018-02-21T01:08:26.397Z,0.00
2018-02-21T01:09:26.384Z,0.00
2018-02-21T01:10:26.372Z,0.00
2018-02-21T01:11:26.360Z,0.00
2018-02-21T01:12:26.346Z,0.00
2018-02-21T01:13:26.333Z,0.00
2018-02-21T01:14:26.321Z,0.00
2018-02-21T01:15:26.309Z,0.00
2018-02-21T01:16:26.290Z,0.00
2018-02-21T01:17:26.279Z,0.00
2018-02-21T01:18:26.266Z,0.00
2018-02-21T01:19:26.253Z,0.00
2018-02-21T01:20:26.242Z,0.00
2018-02-21T01:21:26.228Z,0.00
2018-02-21T01:22:26.214Z,0.00
2018-02-21T01:23:26.204Z,0.00
2018-02-21T01:24:26.192Z,0.00
2018-02-21T01:25:26.179Z,0.00
2018-02-21T01:26:26.167Z,0.00
2018-02-21T01:27:26.153Z,0.00
2018-02-21T01:28:26.141Z,0.00
2018-02-21T01:29:26.131Z,0.00
2018-02-21T01:30:26.114Z,0.00
2018-02-21T01:31:26.103Z,0.00
2018-02-21T01:32:26.087Z,0.00
2018-02-21T01:33:26.073Z,0.00
2018-02-21T01:34:26.061Z,0.00
2018-02-21T01:35:26.049Z,0.00
2018-02-21T01:36:26.035Z,0.00
2018-02-21T01:37:26.026Z,0.00
2018-02-21T01:38:26.010Z,0.00
2018-02-21T01:39:25.998Z,0.00
2018-02-21T01:40:25.987Z,0.00
2018-02-21T01:41:25.975Z,0.00
2018-02-21T01:42:25.960Z,0.00
2018-02-21T01:43:25.948Z,0.00
2018-02-21T01:44:25.934Z,0.00
2018-02-21T01:45:25.922Z,0.00
2018-02-21T01:46:25.910Z,0.00
2018-02-21T01:47:25.897Z,0.00
2018-02-21T01:48:25.880Z,0.00
2018-02-21T01:49:25.868Z,0.00
2018-02-21T01:50:25.855Z,0.00
2018-02-21T01:51:25.843Z,0.00
2018-02-21T01:52:25.833Z,0.00
2018-02-21T01:53:25.820Z,0.00
2018-02-21T01:54:25.808Z,0.00
2018-02-21T01:55:25.796Z,0.00
2018-02-21T01:56:25.779Z,0.00
2018-02-21T01:57:25.765Z,0.00
2018-02-21T01:58:25.754Z,0.00
2018-02-21T01:59:25.741Z,0.00
2018-02-21T02:00:25.727Z,0.00
2018-02-21T02:01:25.714Z,0.00
2018-02-21T02:02:25.702Z,0.00
2018-02-21T02:03:25.688Z,0.00
2018-02-21T02:04:25.682Z,0.00
2018-02-21T02:05:25.666Z,0.00
2018-02-21T02:06:25.655Z,0.00
2018-02-21T02:07:25.640Z,0.00
2018-02-21T02:08:25.626Z,0.00
2018-02-21T02:09:25.615Z,0.00
2018-02-21T02:10:25.601Z,0.00
2018-02-21T02:11:25.591Z,0.00
2018-02-21T02:12:25.572Z,0.00
2018-02-21T02:13:25.559Z,0.00
2018-02-21T02:14:25.547Z,0.00
2018-02-21T02:15:25.535Z,0.00
2018-02-21T02:16:25.521Z,0.00
2018-02-21T02:17:25.509Z,0.00
2018-02-21T02:18:25.494Z,0.00
2018-02-21T02:19:25.486Z,0.00
2018-02-21T02:20:25.471Z,0.00
2018-02-21T02:21:25.460Z,0.00
2018-02-21T02:22:25.448Z,0.00
2018-02-21T02:23:25.437Z,0.00
2018-02-21T02:24:25.422Z,0.00
2018-02-21T02:25:25.407Z,0.00
2018-02-21T02:26:25.396Z,0.00
2018-02-21T02:27:25.381Z,0.00
2018-02-21T02:28:25.366Z,0.00
2018-02-21T02:29:25.354Z,0.00
2018-02-21T02:30:25.341Z,0.00
2018-02-21T02:31:25.330Z,0.00
2018-02-21T02:32:25.317Z,0.00
2018-02-21T02:33:25.301Z,0.00
2018-02-21T02:34:25.290Z,0.00
2018-02-21T02:35:25.276Z,0.00
2018-02-21T02:36:25.266Z,0.00
2018-02-21T02:37:25.252Z,0.00
2018-02-21T02:38:25.240Z,0.00
2018-02-21T02:39:25.230Z,0.00
2018-02-21T02:40:25.215Z,0.00
2018-02-21T02:41:25.202Z,0.00
2018-02-21T02:42:25.188Z,0.00
2018-02-21T02:43:25.176Z,0.00
2018-02-21T02:44:25.159Z,0.00
2018-02-21T02:45:25.146Z,0.00
2018-02-21T02:46:25.132Z,0.00
2018-02-21T02:47:25.120Z,0.00
2018-02-21T02:48:25.107Z,0.00
2018-02-21T02:49:25.093Z,0.00
2018-02-21T02:50:25.083Z,0.00
2018-02-21T02:51:25.068Z,0.00
2018-02-21T02:52:25.060Z,0.00
2018-02-21T02:53:25.045Z,0.00
2018-02-21T02:54:25.033Z,0.00
2018-02-21T02:55:25.019Z,0.00
2018-02-21T02:56:25.005Z,0.00
2018-02-21T02:57:24.996Z,0.00
2018-02-21T02:58:24.980Z,0.00
2018-02-21T02:59:24.967Z,0.00
2018-02-21T03:00:24.951Z,0.00
2018-02-21T03:01:24.938Z,0.00
2018-02-21T03:02:24.929Z,0.00
2018-02-21T03:03:24.913Z,0.00
2018-02-21T03:04:24.900Z,0.00
2018-02-21T03:05:24.892Z,0.00
2018-02-21T03:06:24.872Z,0.00
2018-02-21T03:07:24.860Z,0.00
2018-02-21T03:08:24.849Z,0.00
2018-02-21T03:09:24.836Z,0.00
2018-02-21T03:10:24.824Z,0.00
2018-02-21T03:11:24.810Z,0.00
2018-02-21T03:12:24.796Z,0.00
2018-02-21T03:13:24.786Z,0.00
2018-02-21T03:14:24.771Z,0.00
2018-02-21T03:15:24.759Z,0.00
2018-02-21T03:16:24.742Z,0.00
2018-02-21T03:17:24.729Z,0.00
2018-02-21T03:18:24.718Z,0.00
2018-02-21T03:19:24.704Z,0.00
2018-02-21T03:20:24.690Z,0.00
2018-02-21T03:21:24.677Z,0.00
2018-02-21T03:22:24.664Z,0.00
2018-02-21T03:23:24.652Z,0.00
2018-02-21T03:24:24.646Z,0.00
2018-02-21T03:25:24.629Z,0.00
2018-02-21T03:26:24.617Z,0.00
2018-02-21T03:27:24.604Z,0.00
2018-02-21T03:28:24.589Z,0.00
2018-02-21T03:29:24.578Z,0.00
2018-02-21T03:30:24.566Z,0.00
2018-02-21T03:31:24.553Z,0.00
2018-02-21T03:32:24.539Z,0.00
2018-02-21T03:33:24.523Z,0.00
2018-02-21T03:34:24.514Z,0.00
2018-02-21T03:35:24.497Z,0.00
2018-02-21T03:36:24.484Z,0.00
2018-02-21T03:37:24.472Z,0.00
2018-02-21T03:38:24.460Z,0.00
2018-02-21T03:39:24.447Z,0.00
2018-02-21T03:40:24.437Z,0.00
2018-02-21T03:41:24.424Z,0.00
2018-02-21T03:42:24.412Z,0.00
2018-02-21T03:43:24.400Z,0.00
2018-02-21T03:44:24.387Z,0.00
2018-02-21T03:45:24.373Z,0.00
2018-02-21T03:46:24.362Z,0.00
2018-02-21T03:47:24.349Z,0.00
2018-02-21T03:48:24.333Z,0.00
2018-02-21T03:49:24.320Z,0.00
2018-02-21T03:50:24.312Z,0.00
2018-02-21T03:51:24.296Z,0.00
2018-02-21T03:52:24.282Z,0.00
2018-02-21T03:53:24.270Z,0.00
2018-02-21T03:54:24.257Z,0.00
2018-02-21T03:55:24.245Z,0.00
2018-02-21T03:56:24.234Z,0.00
2018-02-21T03:57:24.223Z,0.00
2018-02-21T03:58:24.210Z,0.00
2018-02-21T03:59:24.197Z,0.00
2018-02-21T04:00:24.182Z,0.00
2018-02-21T04:01:24.169Z,0.00
2018-02-21T04:02:24.158Z,0.00
2018-02-21T04:03:24.148Z,0.00
2018-02-21T04:04:24.134Z,0.00
2018-02-21T04:05:24.123Z,0.00
2018-02-21T04:06:24.110Z,0.00
2018-02-21T04:07:24.098Z,0.00
2018-02-21T04:08:24.084Z,0.00
2018-02-21T04:09:24.072Z,0.00
2018-02-21T04:10:24.060Z,0.00
2018-02-21T04:11:24.049Z,0.00
2018-02-21T04:12:24.031Z,0.00
2018-02-21T04:13:24.019Z,0.00
2018-02-21T04:14:24.007Z,0.00
2018-02-21T04:15:23.997Z,0.00
2018-02-21T04:16:23.981Z,0.00
2018-02-21T04:17:23.970Z,0.00
2018-02-21T04:18:23.958Z,0.00
2018-02-21T04:19:23.945Z,0.00
2018-02-21T04:20:23.935Z,0.00
2018-02-21T04:21:23.923Z,0.00
2018-02-21T04:22:23.912Z,0.00
2018-02-21T04:23:23.898Z,0.00
2018-02-21T04:24:23.887Z,0.00
2018-02-21T04:25:23.873Z,0.00
2018-02-21T04:26:23.862Z,0.00
2018-02-21T04:27:23.849Z,0.00
2018-02-21T04:28:23.834Z,0.00
2018-02-21T04:29:23.823Z,0.00
2018-02-21T04:30:23.810Z,0.00
2018-02-21T04:31:23.800Z,0.00
2018-02-21T04:32:23.785Z,0.00
2018-02-21T04:33:23.773Z,0.00
2018-02-21T04:34:23.763Z,0.00
2018-02-21T04:35:23.749Z,0.00
2018-02-21T04:36:23.739Z,0.00
2018-02-21T04:37:23.728Z,0.00
2018-02-21T04:38:23.716Z,0.00
2018-02-21T04:39:23.703Z,0.00
2018-02-21T04:40:23.690Z,0.00
2018-02-21T04:41:23.679Z,0.00
2018-02-21T04:42:23.667Z,0.00
2018-02-21T04:43:23.656Z,0.00
2018-02-21T04:44:23.639Z,0.00
2018-02-21T04:45:23.626Z,0.00
2018-02-21T04:46:23.616Z,0.00
2018-02-21T04:47:23.605Z,0.00
2018-02-21T04:48:23.591Z,0.00
2018-02-21T04:49:23.610Z,0.00
2018-02-21T04:50:23.567Z,0.00
2018-02-21T04:51:23.555Z,0.00
2018-02-21T04:52:23.546Z,0.00
2018-02-21T04:53:23.534Z,0.00
2018-02-21T04:54:23.521Z,0.00
2018-02-21T04:55:23.509Z,0.00
2018-02-21T04:56:23.497Z,0.00
2018-02-21T04:57:23.488Z,0.00
2018-02-21T04:58:23.473Z,0.00
2018-02-21T04:59:23.463Z,0.00
2018-02-21T05:00:23.449Z,0.00
2018-02-21T05:01:23.434Z,0.00
2018-02-21T05:02:23.422Z,0.00
2018-02-21T05:03:23.410Z,0.00
2018-02-21T05:04:23.400Z,0.00
2018-02-21T05:05:23.388Z,0.00
2018-02-21T05:06:23.376Z,0.00
2018-02-21T05:07:23.364Z,0.00
2018-02-21T05:08:23.349Z,0.00
2018-02-21T05:09:23.337Z,0.00
2018-02-21T05:10:23.324Z,0.00
2018-02-21T05:11:23.317Z,0.00
2018-02-21T05:12:23.298Z,0.00
2018-02-21T05:13:23.288Z,0.00
2018-02-21T05:14:23.276Z,0.00
2018-02-21T05:15:23.264Z,0.00
2018-02-21T05:16:23.255Z,0.00
2018-02-21T05:17:23.243Z,0.00
2018-02-21T05:18:23.230Z,0.00
2018-02-21T05:19:23.218Z,0.00
2018-02-21T05:20:23.206Z,0.00
2018-02-21T05:21:23.196Z,0.00
2018-02-21T05:22:23.181Z,0.00
2018-02-21T05:23:23.171Z,0.00
2018-02-21T05:24:23.154Z,0.00
2018-02-21T05:25:23.143Z,0.00
2018-02-21T05:26:23.184Z,0.00
2018-02-21T05:27:23.119Z,0.00
2018-02-21T05:28:23.107Z,0.00
2018-02-21T05:29:23.095Z,0.00
2018-02-21T05:30:23.084Z,0.00
2018-02-21T05:31:23.072Z,0.00
2018-02-21T05:32:23.064Z,0.00
2018-02-21T05:33:23.049Z,0.00
2018-02-21T05:34:23.037Z,0.00
2018-02-21T05:35:23.026Z,0.00
2018-02-21T05:36:23.014Z,0.00
2018-02-21T05:37:23.001Z,0.00
2018-02-21T05:38:22.990Z,0.00
2018-02-21T05:39:22.978Z,0.00
2018-02-21T05:40:22.963Z,0.00
2018-02-21T05:41:22.951Z,0.00
2018-02-21T05:42:22.943Z,0.00
2018-02-21T05:43:22.928Z,0.00
2018-02-21T05:44:22.916Z,0.00
2018-02-21T05:45:22.904Z,0.00
2018-02-21T05:46:22.892Z,0.00
2018-02-21T05:47:22.883Z,0.00
2018-02-21T05:48:22.871Z,0.00
2018-02-21T05:49:22.860Z,0.00
2018-02-21T05:50:22.847Z,0.00
2018-02-21T05:51:22.836Z,0.00
2018-02-21T05:52:22.824Z,0.00
2018-02-21T05:53:22.812Z,0.00
2018-02-21T05:54:22.800Z,0.00
2018-02-21T05:55:22.789Z,0.00
2018-02-21T05:56:22.777Z,0.00
2018-02-21T05:57:22.762Z,0.00
2018-02-21T05:58:22.749Z,0.00
2018-02-21T05:59:22.737Z,0.00
2018-02-21T06:00:22.724Z,0.00
2018-02-21T06:01:22.713Z,4.00
2018-02-21T06:02:22.701Z,0.00
2018-02-21T06:03:22.693Z,4.00
2018-02-21T06:04:22.678Z,0.00
2018-02-21T06:05:22.667Z,4.00
2018-02-21T06:06:22.656Z,4.00
2018-02-21T06:07:22.643Z,4.00
2018-02-21T06:08:22.626Z,4.00
2018-02-21T06:09:22.616Z,4.00
2018-02-21T06:10:22.604Z,8.00
2018-02-21T06:11:22.591Z,8.00
2018-02-21T06:12:22.582Z,12.00
2018-02-21T06:13:22.569Z,12.00
2018-02-21T06:14:22.555Z,16.00
2018-02-21T06:15:22.545Z,16.00
2018-02-21T06:16:22.536Z,20.00
2018-02-21T06:17:22.518Z,24.00
2018-02-21T06:18:22.506Z,28.00
2018-02-21T06:19:22.494Z,36.00
2018-02-21T06:20:22.478Z,40.00
2018-02-21T06:21:22.466Z,44.00
2018-02-21T06:22:22.453Z,52.00
2018-02-21T06:23:22.441Z,60.00
2018-02-21T06:24:22.429Z,68.00
2018-02-21T06:25:22.415Z,76.00
2018-02-21T06:26:22.405Z,88.00
2018-02-21T06:27:22.393Z,100.00
2018-02-21T06:28:22.381Z,108.00
2018-02-21T06:29:22.369Z,124.00
2018-02-21T06:30:22.356Z,136.00
2018-02-21T06:31:22.344Z,156.00
2018-02-21T06:32:22.331Z,172.00
2018-02-21T06:33:22.317Z,184.00
2018-02-21T06:34:22.306Z,204.00
2018-02-21T06:35:22.293Z,224.00
2018-02-21T06:36:22.281Z,240.00
2018-02-21T06:37:22.265Z,264.00
2018-02-21T06:38:22.252Z,284.00
2018-02-21T06:39:22.239Z,304.00
2018-02-21T06:40:22.227Z,328.00
2018-02-21T06:41:22.227Z,352.00
2018-02-21T06:42:22.205Z,376.00
2018-02-21T06:43:22.193Z,404.00
2018-02-21T06:44:22.180Z,432.00
2018-02-21T06:45:22.169Z,460.00
2018-02-21T06:46:22.155Z,488.00
2018-02-21T06:47:22.141Z,520.00
2018-02-21T06:48:22.128Z,528.00
2018-02-21T06:49:22.115Z,540.00
2018-02-21T06:50:22.104Z,560.00
2018-02-21T06:51:22.091Z,612.00
2018-02-21T06:52:22.075Z,680.00
2018-02-21T06:53:22.061Z,748.00
2018-02-21T06:54:22.050Z,804.00
2018-02-21T06:55:22.038Z,840.00
2018-02-21T06:56:22.024Z,888.00
2018-02-21T06:57:22.011Z,964.00
2018-02-21T06:58:21.998Z,1016.00
2018-02-21T06:59:21.987Z,1064.00
2018-02-21T07:00:21.976Z,1116.00
2018-02-21T07:01:21.964Z,1180.00
2018-02-21T07:02:21.950Z,1228.00
2018-02-21T07:03:21.937Z,1308.00
2018-02-21T07:04:21.925Z,1392.00
2018-02-21T07:05:21.913Z,1472.00
2018-02-21T07:06:21.901Z,1544.00
2018-02-21T07:07:21.888Z,1604.00
2018-02-21T07:08:21.872Z,1640.00
2018-02-21T07:09:21.859Z,1648.00
2018-02-21T07:10:21.848Z,1688.00
2018-02-21T07:11:21.835Z,1804.00
2018-02-21T07:12:21.822Z,1952.00
2018-02-21T07:13:21.809Z,2096.00
2018-02-21T07:14:21.797Z,2224.00
2018-02-21T07:15:21.802Z,2324.00
2018-02-21T07:16:21.775Z,2412.00
2018-02-21T07:17:21.763Z,2500.00
2018-02-21T07:18:21.750Z,2600.00
2018-02-21T07:19:21.742Z,2708.00
2018-02-21T07:20:21.726Z,2832.00
2018-02-21T07:21:21.713Z,2964.00
2018-02-21T07:22:21.701Z,3124.00
2018-02-21T07:23:21.689Z,3328.00
2018-02-21T07:24:21.673Z,3516.00
2018-02-21T07:25:21.662Z,3672.00
2018-02-21T07:26:21.648Z,3800.00
2018-02-21T07:27:21.638Z,3928.00
2018-02-21T07:28:21.624Z,4076.00
2018-02-21T07:29:21.612Z,4256.00
2018-02-21T07:30:21.606Z,4424.00
2018-02-21T07:31:21.592Z,4572.00
2018-02-21T07:32:21.580Z,4752.00
2018-02-21T07:33:21.570Z,4912.00
2018-02-21T07:34:21.560Z,5064.00
2018-02-21T07:35:21.548Z,5216.00
2018-02-21T07:36:21.537Z,5340.00
2018-02-21T07:37:21.527Z,5480.00
2018-02-21T07:38:21.515Z,5660.00
2018-02-21T07:39:21.504Z,5808.00
2018-02-21T07:40:21.492Z,5960.00
2018-02-21T07:41:21.481Z,6128.00
2018-02-21T07:42:21.471Z,6308.00
2018-02-21T07:43:21.463Z,6500.00
2018-02-21T07:44:21.452Z,6676.00
2018-02-21T07:45:21.442Z,6900.00
2018-02-21T07:46:21.433Z,7120.00
2018-02-21T07:47:21.424Z,7328.00
2018-02-21T07:48:21.418Z,7532.00
2018-02-21T07:49:21.408Z,7712.00
2018-02-21T07:50:21.401Z,7896.00
2018-02-21T07:51:21.390Z,8028.00
2018-02-21T07:52:21.385Z,8164.00
2018-02-21T07:53:21.373Z,8308.00
2018-02-21T07:54:21.365Z,8416.00
2018-02-21T07:55:21.359Z,8656.00
2018-02-21T07:56:21.347Z,8852.00
2018-02-21T07:57:21.341Z,8948.00
2018-02-21T07:58:21.333Z,9196.00
2018-02-21T07:59:21.325Z,9476.00
2018-02-21T08:00:21.318Z,9696.00
2018-02-21T08:01:21.311Z,9912.00
2018-02-21T08:02:21.303Z,10084.00
2018-02-21T08:03:21.296Z,10192.00
2018-02-21T08:04:21.292Z,10328.00
2018-02-21T08:05:21.285Z,10616.00
2018-02-21T08:06:21.280Z,10824.00
2018-02-21T08:07:21.273Z,10944.00
2018-02-21T08:08:21.265Z,11112.00
2018-02-21T08:09:21.261Z,11364.00
2018-02-21T08:10:21.254Z,11524.00
2018-02-21T08:11:21.250Z,11692.00
2018-02-21T08:12:21.241Z,12016.00
2018-02-21T08:13:21.234Z,12260.00
2018-02-21T08:14:21.230Z,12548.00
2018-02-21T08:15:21.271Z,12580.00
2018-02-21T08:16:21.221Z,12572.00
2018-02-21T08:17:21.216Z,12968.00
2018-02-21T08:18:21.212Z,13032.00
2018-02-21T08:19:21.211Z,13072.00
2018-02-21T08:20:21.201Z,13536.00
2018-02-21T08:21:21.196Z,13888.00
2018-02-21T08:22:21.193Z,13824.00
2018-02-21T08:23:21.188Z,14176.00
2018-02-21T08:24:21.183Z,14336.00
2018-02-21T08:25:21.179Z,14784.00
2018-02-21T08:26:21.175Z,14880.00
2018-02-21T08:27:21.172Z,15328.00
2018-02-21T08:28:21.211Z,11588.00
2018-02-21T08:29:21.167Z,11240.00
2018-02-21T08:30:21.163Z,11360.00
2018-02-21T08:31:21.161Z,11240.00
2018-02-21T08:32:21.156Z,11252.00
2018-02-21T08:33:21.153Z,11244.00
2018-02-21T08:34:21.152Z,11068.00
2018-02-21T08:35:21.147Z,10976.00
2018-02-21T08:36:21.141Z,10976.00
2018-02-21T08:37:21.138Z,11144.00
2018-02-21T08:38:21.137Z,11264.00
2018-02-21T08:39:21.134Z,11428.00
2018-02-21T08:40:21.129Z,11400.00
2018-02-21T08:41:21.130Z,11556.00
2018-02-21T08:42:21.126Z,11832.00
2018-02-21T08:43:21.122Z,11916.00
2018-02-21T08:44:21.122Z,12052.00
2018-02-21T08:45:21.118Z,11476.00
2018-02-21T08:46:21.116Z,11308.00
2018-02-21T08:47:21.114Z,12260.00
2018-02-21T08:48:21.116Z,12452.00
2018-02-21T08:49:21.109Z,12616.00
2018-02-21T08:50:21.108Z,12792.00
2018-02-21T08:51:21.105Z,12824.00
2018-02-21T08:52:21.099Z,12872.00
2018-02-21T08:53:21.099Z,12928.00
2018-02-21T08:54:21.095Z,11772.00
2018-02-21T08:55:21.094Z,10632.00
2018-02-21T08:56:21.091Z,10684.00
2018-02-21T08:57:21.090Z,11092.00
2018-02-21T08:58:21.088Z,11016.00
2018-02-21T08:59:21.086Z,11520.00
2018-02-21T09:00:21.087Z,12004.00
2018-02-21T09:01:21.085Z,11868.00
2018-02-21T09:02:21.083Z,13528.00
2018-02-21T09:03:21.080Z,13396.00
2018-02-21T09:04:21.078Z,15296.00
2018-02-21T09:05:21.077Z,16512.00
2018-02-21T09:06:21.074Z,17504.00
2018-02-21T09:07:21.074Z,18336.00
2018-02-21T09:08:21.068Z,18880.00
2018-02-21T09:09:21.067Z,18816.00
2018-02-21T09:10:21.066Z,19360.00
2018-02-21T09:11:21.065Z,19520.00
2018-02-21T09:12:21.063Z,19136.00
2018-02-21T09:13:21.062Z,19296.00
2018-02-21T09:14:21.104Z,19040.00
2018-02-21T09:15:21.062Z,18720.00
2018-02-21T09:16:21.063Z,19776.00
2018-02-21T09:17:21.063Z,20224.00
2018-02-21T09:18:21.065Z,18016.00
2018-02-21T09:19:21.063Z,17152.00
2018-02-21T09:20:21.060Z,17024.00
2018-02-21T09:21:21.083Z,19008.00
2018-02-21T09:22:21.061Z,19936.00
2018-02-21T09:23:21.095Z,19904.00
2018-02-21T09:24:21.066Z,19648.00
2018-02-21T09:25:21.065Z,19424.00
2018-02-21T09:26:21.067Z,19744.00
2018-02-21T09:27:21.068Z,19712.00
2018-02-21T09:28:21.068Z,19552.00
2018-02-21T09:29:21.068Z,12168.00
2018-02-21T09:30:21.070Z,19168.00
2018-02-21T09:31:21.071Z,19296.00
2018-02-21T09:32:21.069Z,17920.00
2018-02-21T09:33:21.071Z,12896.00
2018-02-21T09:34:21.072Z,14976.00
2018-02-21T09:35:21.074Z,19968.00
2018-02-21T09:36:21.079Z,19456.00
2018-02-21T09:37:21.078Z,19936.00
2018-02-21T09:38:21.079Z,20096.00
2018-02-21T09:39:21.081Z,19424.00
2018-02-21T09:40:21.085Z,18688.00
2018-02-21T09:41:21.088Z,18304.00
2018-02-21T09:42:21.090Z,16736.00
2018-02-21T09:43:21.092Z,17120.00
2018-02-21T09:44:21.094Z,16992.00
2018-02-21T09:45:21.096Z,17120.00
2018-02-21T09:46:21.099Z,17248.00
2018-02-21T09:47:21.103Z,16960.00
2018-02-21T09:48:21.113Z,17248.00
2018-02-21T09:49:21.105Z,17184.00
2018-02-21T09:50:21.108Z,17696.00
2018-02-21T09:51:21.111Z,17504.00
2018-02-21T09:52:21.112Z,17472.00
2018-02-21T09:53:21.115Z,17504.00
2018-02-21T09:54:21.119Z,17344.00
2018-02-21T09:55:21.124Z,17664.00
2018-02-21T09:56:21.127Z,17248.00
2018-02-21T09:57:21.133Z,17728.00
2018-02-21T09:58:21.137Z,17760.00
2018-02-21T09:59:21.139Z,17984.00
2018-02-21T10:00:21.143Z,17664.00
2018-02-21T10:01:21.147Z,17984.00
2018-02-21T10:02:21.150Z,18144.00
2018-02-21T10:03:21.154Z,18048.00
2018-02-21T10:04:21.155Z,18112.00
2018-02-21T10:05:21.159Z,18240.00
2018-02-21T10:06:21.164Z,18400.00
2018-02-21T10:07:21.169Z,18304.00
2018-02-21T10:08:21.172Z,18656.00
2018-02-21T10:09:21.175Z,18496.00
2018-02-21T10:10:21.180Z,18848.00
2018-02-21T10:11:21.184Z,18528.00
2018-02-21T10:12:21.191Z,18720.00
2018-02-21T10:13:21.195Z,18272.00
2018-02-21T10:14:21.199Z,18944.00
2018-02-21T10:15:21.202Z,18432.00
2018-02-21T10:16:21.206Z,18144.00
2018-02-21T10:17:21.210Z,18720.00
2018-02-21T10:18:21.216Z,18784.00
2018-02-21T10:19:21.221Z,18624.00
2018-02-21T10:20:21.241Z,18656.00
2018-02-21T10:21:21.223Z,19200.00
2018-02-21T10:22:21.231Z,18752.00
2018-02-21T10:23:21.230Z,18816.00
2018-02-21T10:24:21.236Z,19200.00
2018-02-21T10:25:21.240Z,18912.00
2018-02-21T10:26:21.263Z,18816.00
2018-02-21T10:27:21.249Z,19776.00
2018-02-21T10:28:21.249Z,20384.00
2018-02-21T10:29:21.252Z,20992.00
2018-02-21T10:30:21.256Z,20864.00
2018-02-21T10:31:21.260Z,20480.00
2018-02-21T10:32:21.264Z,20320.00
2018-02-21T10:33:21.268Z,20992.00
2018-02-21T10:34:21.273Z,21984.00
2018-02-21T10:35:21.275Z,22720.00
2018-02-21T10:36:21.287Z,21856.00
2018-02-21T10:37:21.286Z,20832.00
2018-02-21T10:38:21.290Z,20672.00
2018-02-21T10:39:21.295Z,22752.00
2018-02-21T10:40:21.299Z,23328.00
2018-02-21T10:41:21.301Z,19936.00
2018-02-21T10:42:21.304Z,19776.00
2018-02-21T10:43:21.309Z,19424.00
2018-02-21T10:44:21.311Z,24640.00
2018-02-21T10:45:21.315Z,31808.00
2018-02-21T10:46:21.318Z,34912.00
2018-02-21T10:47:21.322Z,35456.00
2018-02-21T10:48:21.326Z,27168.00
2018-02-21T10:49:21.336Z,20096.00
2018-02-21T10:50:21.335Z,18944.00
2018-02-21T10:51:21.340Z,19008.00
2018-02-21T10:52:21.345Z,18912.00
2018-02-21T10:53:21.348Z,18656.00
2018-02-21T10:54:21.353Z,18432.00
2018-02-21T10:55:21.357Z,18016.00
2018-02-21T10:56:21.361Z,18592.00
2018-02-21T10:57:21.364Z,18624.00
2018-02-21T10:58:21.368Z,18336.00
2018-02-21T10:59:21.373Z,18688.00
2018-02-21T11:00:21.374Z,18592.00
2018-02-21T11:01:21.377Z,18368.00
2018-02-21T11:02:21.381Z,18496.00
2018-02-21T11:03:21.386Z,18784.00
2018-02-21T11:04:21.388Z,18208.00
2018-02-21T11:05:21.392Z,18528.00
2018-02-21T11:06:21.396Z,18368.00
2018-02-21T11:07:21.400Z,18848.00
2018-02-21T11:08:21.406Z,18528.00
2018-02-21T11:09:21.409Z,18656.00
2018-02-21T11:10:21.413Z,18368.00
2018-02-21T11:11:21.417Z,18496.00
2018-02-21T11:12:21.421Z,18176.00
2018-02-21T11:13:21.425Z,18240.00
2018-02-21T11:14:21.429Z,17984.00
2018-02-21T11:15:21.434Z,17664.00
2018-02-21T11:16:21.436Z,17792.00
2018-02-21T11:17:21.436Z,17664.00
2018-02-21T11:18:21.441Z,17216.00
2018-02-21T11:19:21.444Z,16416.00
2018-02-21T11:20:21.453Z,16672.00
2018-02-21T11:21:21.451Z,17568.00
2018-02-21T11:22:21.456Z,17536.00
2018-02-21T11:23:21.459Z,17536.00
2018-02-21T11:24:21.465Z,18112.00
2018-02-21T11:25:21.469Z,18176.00
2018-02-21T11:26:21.471Z,20000.00
2018-02-21T11:27:21.476Z,21056.00
2018-02-21T11:28:21.475Z,20736.00
2018-02-21T11:29:21.478Z,21344.00
2018-02-21T11:30:21.482Z,24736.00
2018-02-21T11:31:21.485Z,26080.00
2018-02-21T11:32:21.492Z,24000.00
2018-02-21T11:33:21.493Z,23136.00
2018-02-21T11:34:21.496Z,23872.00
2018-02-21T11:35:21.499Z,26080.00
2018-02-21T11:36:21.501Z,31168.00
2018-02-21T11:37:21.505Z,28928.00
2018-02-21T11:38:21.507Z,25344.00
2018-02-21T11:39:21.509Z,26528.00
2018-02-21T11:40:21.513Z,27424.00
2018-02-21T11:41:21.510Z,18752.00
2018-02-21T11:42:21.518Z,9344.00
2018-02-21T11:43:21.514Z,8148.00
2018-02-21T11:44:21.515Z,8000.00
2018-02-21T11:45:21.519Z,7952.00
2018-02-21T11:46:21.519Z,7800.00
2018-02-21T11:47:21.523Z,7864.00
2018-02-21T11:48:21.524Z,7948.00
2018-02-21T11:49:21.523Z,7944.00
2018-02-21T11:50:21.523Z,7852.00
2018-02-21T11:51:21.523Z,7852.00
2018-02-21T11:52:21.522Z,7780.00
2018-02-21T11:53:21.523Z,7708.00
2018-02-21T11:54:21.520Z,7448.00
2018-02-21T11:55:21.521Z,7392.00
2018-02-21T11:56:21.515Z,7356.00
2018-02-21T11:57:21.513Z,7376.00
2018-02-21T11:58:21.516Z,7308.00
2018-02-21T11:59:21.510Z,7340.00
2018-02-21T12:00:21.506Z,7268.00
2018-02-21T12:01:21.504Z,7252.00
2018-02-21T12:02:21.501Z,7236.00
2018-02-21T12:03:21.500Z,7256.00
2018-02-21T12:04:21.497Z,7228.00
2018-02-21T12:05:21.494Z,7224.00
2018-02-21T12:06:21.492Z,7268.00
2018-02-21T12:07:21.487Z,7172.00
2018-02-21T12:08:21.482Z,7064.00
2018-02-21T12:09:21.479Z,6904.00
2018-02-21T12:10:21.491Z,6900.00
2018-02-21T12:11:21.471Z,6932.00
2018-02-21T12:12:21.463Z,6984.00
2018-02-21T12:13:21.459Z,6972.00
2018-02-21T12:14:21.455Z,6932.00
2018-02-21T12:15:21.450Z,6912.00
2018-02-21T12:16:21.447Z,6860.00
2018-02-21T12:17:21.442Z,6816.00
2018-02-21T12:18:21.435Z,6768.00
2018-02-21T12:19:21.435Z,6668.00
2018-02-21T12:20:21.426Z,6564.00
2018-02-21T12:21:21.422Z,6512.00
2018-02-21T12:22:21.417Z,6504.00
2018-02-21T12:23:21.412Z,6440.00
2018-02-21T12:24:21.405Z,6372.00
2018-02-21T12:25:21.404Z,6296.00
2018-02-21T12:26:21.395Z,6176.00
2018-02-21T12:27:21.389Z,6192.00
2018-02-21T12:28:21.381Z,6188.00
2018-02-21T12:29:21.375Z,6148.00
2018-02-21T12:30:21.370Z,6228.00
2018-02-21T12:31:21.363Z,6236.00
2018-02-21T12:32:21.360Z,6208.00
2018-02-21T12:33:21.352Z,6028.00
2018-02-21T12:34:21.348Z,5888.00